createdAt,value
2017-08-05T00:00:08.314Z,15.70
2017-08-05T00:02:36.656Z,15.80
2017-08-05T00:05:04.891Z,15.70
2017-08-05T00:07:33.175Z,15.70
2017-08-05T00:10:01.434Z,15.60
2017-08-05T00:12:29.674Z,15.50
2017-08-05T00:14:57.960Z,15.40
2017-08-05T00:17:26.966Z,15.50
2017-08-05T00:19:55.988Z,15.60
2017-08-05T00:22:24.555Z,15.60
2017-08-05T00:24:52.845Z,15.60
2017-08-05T00:27:21.111Z,15.50
2017-08-05T00:29:49.356Z,15.30
2017-08-05T00:32:18.411Z,15.20
2017-08-05T00:34:46.705Z,15.10
2017-08-05T00:37:14.956Z,15.20
2017-08-05T00:39:43.750Z,15.00
2017-08-05T00:42:12.040Z,15.00
2017-08-05T00:44:40.269Z,14.90
2017-08-05T00:47:09.281Z,15.00
2017-08-05T00:49:37.587Z,14.90
2017-08-05T00:52:05.818Z,15.00
2017-08-05T00:54:34.826Z,14.80
2017-08-05T00:57:03.081Z,14.80
2017-08-05T00:59:32.095Z,14.90
2017-08-05T01:02:01.085Z,15.00
2017-08-05T01:04:29.356Z,14.90
2017-08-05T01:06:57.632Z,14.80
2017-08-05T01:09:26.639Z,14.60
2017-08-05T01:11:55.503Z,14.60
2017-08-05T01:14:23.753Z,14.70
2017-08-05T01:16:52.017Z,14.70
2017-08-05T01:19:20.275Z,14.60
2017-08-05T01:21:48.575Z,14.60
2017-08-05T01:24:16.836Z,14.50
2017-08-05T01:26:45.097Z,14.60
2017-08-05T01:29:13.333Z,14.50
2017-08-05T01:31:41.591Z,14.40
2017-08-05T01:34:09.848Z,14.40
2017-08-05T01:36:38.117Z,14.30
2017-08-05T01:39:06.383Z,14.30
2017-08-05T01:41:34.651Z,14.20
2017-08-05T01:44:03.670Z,14.10
2017-08-05T01:46:31.947Z,14.10
2017-08-05T01:49:00.194Z,14.20
2017-08-05T01:51:28.449Z,14.20
2017-08-05T01:53:57.484Z,14.10
2017-08-05T01:56:25.716Z,14.10
2017-08-05T01:58:53.943Z,14.20
2017-08-05T02:01:22.194Z,14.20
2017-08-05T02:03:50.434Z,14.10
2017-08-05T02:06:18.720Z,14.10
2017-08-05T02:08:46.975Z,14.20
2017-08-05T02:11:15.215Z,14.20
2017-08-05T02:13:43.483Z,14.20
2017-08-05T02:16:11.734Z,14.20
2017-08-05T02:18:40.771Z,14.30
2017-08-05T02:21:08.998Z,14.30
2017-08-05T02:23:37.248Z,14.40
2017-08-05T02:26:05.505Z,14.50
2017-08-05T02:28:33.709Z,14.70
2017-08-05T02:31:01.966Z,14.60
2017-08-05T02:33:30.217Z,14.70
2017-08-05T02:35:58.467Z,14.90
2017-08-05T02:38:26.840Z,14.80
2017-08-05T02:40:55.078Z,14.80
2017-08-05T02:43:23.334Z,14.80
2017-08-05T02:45:51.556Z,14.80
2017-08-05T02:48:19.835Z,14.80
2017-08-05T02:50:48.891Z,14.80
2017-08-05T02:53:17.124Z,14.80
2017-08-05T02:55:45.374Z,14.70
2017-08-05T02:58:13.612Z,14.70
2017-08-05T03:00:41.858Z,14.70
2017-08-05T03:03:10.122Z,14.80
2017-08-05T03:05:39.173Z,15.10
2017-08-05T03:08:07.384Z,15.10
2017-08-05T03:10:35.635Z,15.10
2017-08-05T03:13:03.893Z,15.20
2017-08-05T03:15:32.149Z,15.20
2017-08-05T03:18:01.151Z,15.20
2017-08-05T03:20:29.467Z,15.10
2017-08-05T03:22:57.720Z,15.00
2017-08-05T03:25:25.968Z,15.00
2017-08-05T03:27:54.978Z,14.90
2017-08-05T03:30:23.243Z,14.90
2017-08-05T03:32:51.486Z,14.90
2017-08-05T03:35:19.723Z,14.90
2017-08-05T03:37:47.983Z,14.80
2017-08-05T03:40:16.254Z,14.90
2017-08-05T03:42:44.524Z,15.00
2017-08-05T03:45:13.542Z,15.20
2017-08-05T03:47:41.791Z,15.10
2017-08-05T03:50:10.809Z,15.00
2017-08-05T03:52:39.057Z,15.00
2017-08-05T03:55:08.096Z,15.10
2017-08-05T03:57:36.379Z,15.10
2017-08-05T04:00:05.341Z,15.40
2017-08-05T04:02:33.606Z,15.30
2017-08-05T04:05:01.836Z,15.30
2017-08-05T04:07:30.294Z,15.20
2017-08-05T04:09:58.529Z,15.30
2017-08-05T04:12:26.835Z,15.50
2017-08-05T04:14:55.812Z,15.40
2017-08-05T04:17:24.830Z,15.30
2017-08-05T04:19:53.047Z,15.30
2017-08-05T04:22:21.282Z,15.30
2017-08-05T04:24:49.542Z,15.30
2017-08-05T04:27:18.578Z,15.50
2017-08-05T04:29:46.823Z,15.40
2017-08-05T04:32:15.845Z,15.50
2017-08-05T04:34:44.085Z,15.50
2017-08-05T04:37:13.100Z,15.50
2017-08-05T04:39:41.354Z,15.50
2017-08-05T04:42:09.600Z,15.50
2017-08-05T04:44:37.847Z,15.60
2017-08-05T04:47:06.107Z,15.60
2017-08-05T04:49:34.362Z,15.70
2017-08-05T04:52:03.398Z,15.80
2017-08-05T04:54:31.669Z,15.80
2017-08-05T04:56:59.893Z,15.70
2017-08-05T04:59:28.154Z,15.60
2017-08-05T05:01:56.402Z,15.60
2017-08-05T05:04:24.662Z,15.50
2017-08-05T05:06:52.920Z,15.50
2017-08-05T05:09:21.893Z,15.70
2017-08-05T05:11:50.927Z,15.70
2017-08-05T05:14:19.178Z,15.70
2017-08-05T05:16:47.497Z,15.80
2017-08-05T05:19:15.755Z,15.80
2017-08-05T05:21:43.977Z,15.90
2017-08-05T05:24:12.327Z,15.90
2017-08-05T05:26:40.616Z,16.00
2017-08-05T05:29:08.918Z,15.90
2017-08-05T05:31:37.129Z,15.80
2017-08-05T05:34:06.139Z,15.90
2017-08-05T05:36:34.416Z,15.90
2017-08-05T05:39:02.645Z,15.80
2017-08-05T05:41:30.899Z,15.80
2017-08-05T05:43:59.121Z,15.70
2017-08-05T05:46:28.193Z,15.70
2017-08-05T05:48:56.431Z,15.70
2017-08-05T05:51:24.706Z,15.70
2017-08-05T05:53:52.974Z,15.80
2017-08-05T05:56:21.243Z,15.90
2017-08-05T05:58:50.251Z,16.00
2017-08-05T06:01:18.508Z,16.00
2017-08-05T06:03:47.552Z,16.10
2017-08-05T06:06:15.787Z,16.10
2017-08-05T06:08:44.044Z,16.20
2017-08-05T06:11:12.277Z,16.20
2017-08-05T06:13:40.580Z,16.20
2017-08-05T06:16:08.786Z,16.20
2017-08-05T06:18:37.042Z,16.30
2017-08-05T06:21:05.281Z,16.30
2017-08-05T06:23:33.567Z,16.30
2017-08-05T06:26:01.810Z,16.30
2017-08-05T06:28:30.063Z,16.30
2017-08-05T06:30:59.094Z,16.20
2017-08-05T06:33:27.342Z,16.20
2017-08-05T06:35:56.365Z,16.10
2017-08-05T06:38:24.624Z,16.10
2017-08-05T06:40:52.859Z,16.10
2017-08-05T06:43:21.098Z,16.00
2017-08-05T06:45:49.341Z,16.00
2017-08-05T06:48:18.381Z,15.90
2017-08-05T06:50:46.602Z,15.90
2017-08-05T06:53:15.611Z,16.00
2017-08-05T06:55:43.893Z,16.00
2017-08-05T06:58:12.882Z,16.00
2017-08-05T07:00:41.922Z,16.10
2017-08-05T07:03:10.172Z,16.10
2017-08-05T07:05:38.470Z,16.10
2017-08-05T07:08:06.695Z,16.10
2017-08-05T07:10:35.702Z,16.00
2017-08-05T07:13:03.971Z,16.00
2017-08-05T07:15:32.995Z,16.00
2017-08-05T07:18:01.257Z,16.00
2017-08-05T07:20:30.266Z,16.10
2017-08-05T07:22:58.518Z,16.00
2017-08-05T07:25:26.789Z,16.20
2017-08-05T07:27:55.838Z,16.40
2017-08-05T07:30:24.086Z,16.40
2017-08-05T07:32:52.337Z,16.40
2017-08-05T07:35:20.581Z,16.30
2017-08-05T07:37:48.814Z,16.30
2017-08-05T07:40:17.094Z,16.30
2017-08-05T07:42:45.334Z,16.30
2017-08-05T07:45:14.361Z,16.30
2017-08-05T07:47:42.602Z,16.30
2017-08-05T07:50:10.893Z,16.40
2017-08-05T07:52:39.231Z,16.40
2017-08-05T07:55:07.506Z,16.50
2017-08-05T07:57:35.721Z,16.60
2017-08-05T08:00:03.980Z,16.60
2017-08-05T08:02:32.271Z,16.60
2017-08-05T08:05:00.606Z,16.70
2017-08-05T08:07:28.842Z,16.60
2017-08-05T08:09:57.865Z,16.60
2017-08-05T08:12:26.155Z,16.60
2017-08-05T08:14:54.383Z,16.40
2017-08-05T08:17:23.397Z,16.30
2017-08-05T08:19:51.676Z,16.30
2017-08-05T08:22:19.924Z,16.30
2017-08-05T08:24:49.062Z,16.40
2017-08-05T08:27:17.291Z,16.40
2017-08-05T08:29:46.341Z,16.50
2017-08-05T08:32:14.562Z,16.50
2017-08-05T08:34:43.624Z,16.60
2017-08-05T08:37:11.878Z,16.60
2017-08-05T08:39:40.109Z,16.60
2017-08-05T08:42:09.157Z,16.60
2017-08-05T08:44:37.389Z,16.60
2017-08-05T08:47:06.392Z,16.60
2017-08-05T08:49:34.668Z,16.60
2017-08-05T08:52:03.693Z,16.60
2017-08-05T08:54:32.077Z,16.60
2017-08-05T08:57:01.052Z,16.50
2017-08-05T08:59:29.313Z,16.50
2017-08-05T09:01:58.343Z,16.70
2017-08-05T09:04:26.566Z,16.60
2017-08-05T09:06:54.850Z,16.70
2017-08-05T09:09:23.525Z,16.70
2017-08-05T09:11:51.769Z,16.80
2017-08-05T09:14:20.022Z,16.70
2017-08-05T09:16:48.297Z,16.70
2017-08-05T09:19:16.554Z,16.80
2017-08-05T09:21:45.555Z,16.90
2017-08-05T09:24:14.578Z,16.80
2017-08-05T09:26:42.814Z,16.80
2017-08-05T09:29:11.834Z,16.90
2017-08-05T09:31:40.127Z,16.80
2017-08-05T09:34:08.383Z,16.90
2017-08-05T09:36:36.629Z,16.80
2017-08-05T09:39:04.865Z,16.80
2017-08-05T09:41:33.124Z,16.80
2017-08-05T09:44:01.378Z,16.90
2017-08-05T09:46:30.426Z,16.90
2017-08-05T09:48:58.716Z,16.80
2017-08-05T09:51:26.944Z,16.80
2017-08-05T09:53:55.211Z,16.70
2017-08-05T09:56:23.495Z,16.70
2017-08-05T09:58:51.740Z,16.80
2017-08-05T10:01:19.979Z,16.90
2017-08-05T10:03:48.255Z,17.00
2017-08-05T10:06:16.528Z,17.00
2017-08-05T10:08:44.755Z,17.00
2017-08-05T10:11:13.795Z,17.00
2017-08-05T10:13:42.171Z,16.90
2017-08-05T10:16:10.391Z,16.90
2017-08-05T10:18:38.702Z,16.90
2017-08-05T10:21:06.976Z,17.10
2017-08-05T10:23:36.103Z,17.10
2017-08-05T10:26:04.357Z,17.10
2017-08-05T10:28:33.396Z,17.20
2017-08-05T10:31:01.632Z,17.20
2017-08-05T10:33:29.899Z,17.30
2017-08-05T10:35:58.204Z,17.30
2017-08-05T10:38:26.460Z,17.30
2017-08-05T10:40:55.475Z,17.30
2017-08-05T10:43:23.740Z,17.30
2017-08-05T10:45:52.231Z,17.30
2017-08-05T10:48:20.621Z,17.40
2017-08-05T10:50:48.880Z,17.40
2017-08-05T10:53:17.138Z,17.50
2017-08-05T10:55:46.166Z,17.40
2017-08-05T10:58:14.428Z,17.40
2017-08-05T11:00:42.699Z,17.40
2017-08-05T11:03:10.983Z,17.40
2017-08-05T11:05:39.224Z,17.50
2017-08-05T11:08:08.238Z,17.70
2017-08-05T11:10:38.221Z,17.70
2017-08-05T11:13:06.510Z,17.70
2017-08-05T11:15:34.777Z,17.90
2017-08-05T11:18:03.029Z,17.90
2017-08-05T11:20:31.294Z,17.90
2017-08-05T11:22:59.539Z,17.80
2017-08-05T11:25:27.826Z,17.80
2017-08-05T11:27:56.081Z,17.90
2017-08-05T11:30:25.126Z,18.00
2017-08-05T11:32:53.426Z,17.90
2017-08-05T11:35:21.670Z,18.00
2017-08-05T11:37:49.921Z,18.00
2017-08-05T11:40:18.942Z,18.20
2017-08-05T11:42:47.196Z,18.20
2017-08-05T11:45:15.462Z,18.20
2017-08-05T11:47:44.458Z,18.40
2017-08-05T11:50:13.485Z,18.40
2017-08-05T11:52:41.735Z,18.40
2017-08-05T11:55:09.983Z,18.40
2017-08-05T11:57:38.242Z,18.40
2017-08-05T12:00:06.500Z,18.40
2017-08-05T12:02:34.824Z,18.40
2017-08-05T12:05:03.090Z,18.40
2017-08-05T12:07:31.342Z,18.50
2017-08-05T12:09:59.657Z,18.50
2017-08-05T12:12:27.891Z,18.30
2017-08-05T12:14:56.231Z,18.00
2017-08-05T12:17:24.470Z,17.90
2017-08-05T12:19:52.704Z,17.90
2017-08-05T12:22:20.964Z,18.10
2017-08-05T12:24:49.250Z,17.90
2017-08-05T12:27:18.275Z,18.10
2017-08-05T12:29:46.526Z,18.10
2017-08-05T12:32:14.758Z,18.30
2017-08-05T12:34:43.015Z,18.50
2017-08-05T12:37:11.265Z,18.60
2017-08-05T12:39:39.514Z,18.60
2017-08-05T12:42:07.739Z,18.70
2017-08-05T12:44:36.042Z,18.70
2017-08-05T12:47:04.315Z,18.40
2017-08-05T12:49:32.556Z,18.20
2017-08-05T12:52:00.837Z,18.20
2017-08-05T12:54:29.065Z,18.10
2017-08-05T12:56:57.306Z,18.20
2017-08-05T12:59:25.552Z,18.40
2017-08-05T13:01:53.828Z,18.60
2017-08-05T13:04:22.086Z,18.60
2017-08-05T13:06:50.346Z,18.80
2017-08-05T13:09:18.605Z,19.00
2017-08-05T13:11:46.899Z,19.30
2017-08-05T13:14:15.154Z,19.50
2017-08-05T13:16:43.399Z,19.60
2017-08-05T13:19:11.775Z,19.70
2017-08-05T13:21:40.751Z,19.90
2017-08-05T13:24:09.018Z,19.80
2017-08-05T13:26:37.310Z,19.90
2017-08-05T13:29:06.318Z,20.20
2017-08-05T13:31:34.564Z,20.20
2017-08-05T13:34:03.646Z,20.30
2017-08-05T13:36:31.901Z,20.30
2017-08-05T13:39:00.165Z,20.10
2017-08-05T13:41:28.425Z,19.80
2017-08-05T13:43:56.685Z,19.70
2017-08-05T13:46:24.942Z,19.50
2017-08-05T13:48:53.957Z,19.00
2017-08-05T13:51:22.335Z,19.00
2017-08-05T13:53:50.558Z,19.00
2017-08-05T13:56:18.805Z,18.90
2017-08-05T13:58:47.075Z,18.80
2017-08-05T14:01:15.344Z,18.80
2017-08-05T14:03:43.619Z,18.70
2017-08-05T14:06:12.642Z,18.50
2017-08-05T14:08:41.229Z,18.30
2017-08-05T14:11:10.112Z,18.10
2017-08-05T14:13:38.355Z,17.90
2017-08-05T14:16:06.647Z,17.90
2017-08-05T14:18:34.892Z,18.20
2017-08-05T14:21:03.949Z,18.80
2017-08-05T14:23:32.210Z,18.70
2017-08-05T14:26:00.476Z,19.10
2017-08-05T14:28:28.751Z,19.10
2017-08-05T14:30:56.983Z,19.00
2017-08-05T14:33:25.241Z,18.80
2017-08-05T14:35:54.435Z,18.90
2017-08-05T14:38:22.698Z,18.80
2017-08-05T14:40:50.918Z,18.70
2017-08-05T14:43:19.967Z,18.40
2017-08-05T14:45:48.243Z,18.40
2017-08-05T14:48:16.495Z,18.10
2017-08-05T14:50:44.765Z,17.90
2017-08-05T14:53:13.055Z,17.90
2017-08-05T14:55:42.164Z,18.00
2017-08-05T14:58:10.458Z,18.20
2017-08-05T15:00:38.671Z,18.20
2017-08-05T15:03:07.766Z,18.20
2017-08-05T15:05:36.767Z,18.00
2017-08-05T15:08:05.126Z,18.00
2017-08-05T15:10:33.394Z,18.40
2017-08-05T15:13:02.441Z,18.80
2017-08-05T15:15:31.454Z,19.10
2017-08-05T15:17:59.730Z,19.00
2017-08-05T15:20:28.410Z,18.80
2017-08-05T15:22:56.669Z,18.70
2017-08-05T15:25:24.967Z,18.70
2017-08-05T15:27:53.232Z,18.90
2017-08-05T15:30:21.492Z,18.80
2017-08-05T15:32:50.544Z,19.00
2017-08-05T15:35:18.807Z,19.00
2017-08-05T15:37:47.085Z,19.30
2017-08-05T15:40:15.320Z,19.30
2017-08-05T15:42:43.577Z,19.60
2017-08-05T15:45:12.630Z,19.90
2017-08-05T15:47:40.879Z,19.90
2017-08-05T15:50:09.144Z,20.00
2017-08-05T15:52:38.182Z,19.80
2017-08-05T15:55:06.458Z,19.80
2017-08-05T15:57:34.685Z,19.80
2017-08-05T16:00:03.755Z,19.60
2017-08-05T16:02:32.345Z,19.60
2017-08-05T16:05:00.617Z,19.60
2017-08-05T16:07:28.847Z,19.40
2017-08-05T16:09:57.106Z,19.20
2017-08-05T16:12:25.423Z,19.10
2017-08-05T16:14:53.661Z,19.00
2017-08-05T16:17:21.928Z,19.00
2017-08-05T16:19:50.965Z,19.00
2017-08-05T16:22:19.197Z,19.00
2017-08-05T16:24:47.464Z,19.00
2017-08-05T16:27:15.730Z,19.00
2017-08-05T16:29:43.989Z,18.90
2017-08-05T16:32:12.251Z,18.70
2017-08-05T16:34:40.630Z,18.80
2017-08-05T16:37:08.939Z,18.80
2017-08-05T16:39:37.184Z,18.90
2017-08-05T16:42:05.784Z,18.90
2017-08-05T16:44:34.052Z,18.90
2017-08-05T16:47:02.311Z,18.90
2017-08-05T16:49:30.563Z,19.00
2017-08-05T16:51:59.573Z,18.80
2017-08-05T16:54:27.820Z,18.70
2017-08-05T16:56:56.849Z,17.80
2017-08-05T16:59:25.102Z,17.80
2017-08-05T17:01:54.113Z,17.10
2017-08-05T17:04:22.380Z,17.10
2017-08-05T17:06:51.414Z,16.90
2017-08-05T17:09:19.666Z,16.90
2017-08-05T17:11:47.945Z,16.80
2017-08-05T17:14:16.965Z,16.50
2017-08-05T17:16:45.195Z,16.50
2017-08-05T17:19:13.475Z,16.40
2017-08-05T17:21:41.761Z,16.50
2017-08-05T17:24:10.014Z,16.60
2017-08-05T17:26:39.035Z,16.60
2017-08-05T17:29:07.304Z,16.50
2017-08-05T17:31:35.552Z,16.60
2017-08-05T17:34:04.704Z,16.70
2017-08-05T17:36:32.935Z,16.70
2017-08-05T17:39:01.958Z,16.90
2017-08-05T17:41:30.244Z,16.80
2017-08-05T17:43:58.540Z,16.80
2017-08-05T17:46:26.812Z,16.80
2017-08-05T17:48:55.096Z,16.70
2017-08-05T17:51:23.367Z,16.80
2017-08-05T17:53:51.605Z,16.80
2017-08-05T17:56:20.640Z,16.90
2017-08-05T17:58:48.925Z,16.90
2017-08-05T18:01:17.216Z,16.90
2017-08-05T18:03:46.271Z,17.20
2017-08-05T18:06:15.255Z,17.20
2017-08-05T18:08:43.519Z,17.20
2017-08-05T18:11:12.547Z,17.00
2017-08-05T18:13:40.803Z,17.00
2017-08-05T18:16:09.066Z,16.90
2017-08-05T18:18:38.094Z,16.80
2017-08-05T18:21:06.365Z,16.80
2017-08-05T18:23:35.373Z,17.00
2017-08-05T18:26:03.664Z,16.90
2017-08-05T18:28:32.019Z,16.90
2017-08-05T18:31:00.278Z,17.00
2017-08-05T18:33:29.357Z,16.90
2017-08-05T18:35:57.620Z,16.90
2017-08-05T18:38:25.881Z,16.90
2017-08-05T18:40:54.192Z,16.90
2017-08-05T18:43:22.458Z,16.90
2017-08-05T18:45:50.698Z,16.90
2017-08-05T18:48:18.979Z,16.90
2017-08-05T18:50:47.252Z,16.80
2017-08-05T18:53:15.552Z,16.90
2017-08-05T18:55:43.817Z,16.80
2017-08-05T18:58:12.187Z,16.80
2017-08-05T19:00:40.407Z,16.80
2017-08-05T19:03:09.444Z,16.70
2017-08-05T19:05:37.764Z,16.60
2017-08-05T19:08:06.005Z,16.60
2017-08-05T19:10:34.316Z,16.50
2017-08-05T19:13:02.583Z,16.40
2017-08-05T19:15:30.864Z,16.20
2017-08-05T19:17:59.128Z,16.10
2017-08-05T19:20:27.410Z,15.90
2017-08-05T19:22:55.714Z,15.80
2017-08-05T19:25:23.986Z,15.70
2017-08-05T19:27:52.239Z,15.60
2017-08-05T19:30:20.521Z,15.50
2017-08-05T19:32:48.797Z,15.40
2017-08-05T19:35:17.088Z,15.30
2017-08-05T19:37:45.433Z,15.40
2017-08-05T19:40:13.728Z,15.40
2017-08-05T19:42:43.021Z,15.40
2017-08-05T19:45:11.329Z,15.30
2017-08-05T19:47:39.583Z,15.20
2017-08-05T19:50:07.882Z,15.10
2017-08-05T19:52:36.173Z,15.10
2017-08-05T19:55:04.454Z,15.00
2017-08-05T19:57:32.790Z,15.00
2017-08-05T20:00:01.073Z,14.90
2017-08-05T20:02:29.706Z,14.90
2017-08-05T20:04:58.896Z,14.80
2017-08-05T20:07:27.255Z,14.80
2017-08-05T20:09:55.517Z,14.80
2017-08-05T20:12:23.795Z,14.80
2017-08-05T20:14:52.088Z,14.70
2017-08-05T20:17:20.321Z,14.70
2017-08-05T20:19:48.625Z,14.70
2017-08-05T20:22:16.907Z,14.60
2017-08-05T20:24:45.168Z,14.60
2017-08-05T20:27:13.813Z,14.60
2017-08-05T20:29:42.066Z,14.60
2017-08-05T20:32:10.366Z,14.60
2017-08-05T20:34:39.413Z,14.70
2017-08-05T20:37:07.744Z,14.70
2017-08-05T20:39:36.801Z,14.70
2017-08-05T20:42:05.068Z,14.70
2017-08-05T20:44:33.354Z,14.80
2017-08-05T20:47:01.637Z,14.70
2017-08-05T20:49:29.958Z,14.70
2017-08-05T20:51:58.208Z,14.50
2017-08-05T20:54:26.563Z,14.50
2017-08-05T20:56:54.916Z,14.50
2017-08-05T20:59:23.162Z,14.50
2017-08-05T21:01:52.239Z,14.30
2017-08-05T21:04:20.483Z,14.30
2017-08-05T21:06:48.795Z,14.30
2017-08-05T21:09:17.088Z,14.20
2017-08-05T21:11:45.358Z,14.10
2017-08-05T21:14:14.390Z,14.10
2017-08-05T21:16:42.682Z,14.10
2017-08-05T21:19:10.958Z,14.10
2017-08-05T21:21:39.276Z,14.10
2017-08-05T21:24:07.535Z,14.00
2017-08-05T21:26:35.875Z,14.00
2017-08-05T21:29:04.181Z,14.00
2017-08-05T21:31:32.429Z,14.00
2017-08-05T21:34:00.670Z,14.00
2017-08-05T21:36:29.733Z,14.00
2017-08-05T21:38:58.034Z,14.00
2017-08-05T21:41:26.271Z,14.00
2017-08-05T21:43:54.642Z,14.00
2017-08-05T21:46:22.884Z,14.00
2017-08-05T21:48:51.930Z,13.90
2017-08-05T21:51:20.207Z,13.90
2017-08-05T21:53:48.486Z,13.90
2017-08-05T21:56:16.781Z,13.80
2017-08-05T21:58:45.025Z,13.80
2017-08-05T22:01:13.360Z,13.80
2017-08-05T22:03:41.646Z,13.80
2017-08-05T22:06:10.897Z,13.90
2017-08-05T22:08:39.204Z,14.00
2017-08-05T22:11:07.455Z,14.10
2017-08-05T22:13:35.726Z,14.20
2017-08-05T22:16:03.994Z,14.20
2017-08-05T22:18:32.313Z,14.20
2017-08-05T22:21:00.594Z,14.20
2017-08-05T22:23:28.930Z,14.10
2017-08-05T22:25:57.244Z,14.10
2017-08-05T22:28:25.817Z,14.10
2017-08-05T22:30:54.078Z,14.10
2017-08-05T22:33:22.384Z,14.10
2017-08-05T22:35:50.691Z,14.00
2017-08-05T22:38:18.956Z,14.10
2017-08-05T22:40:47.193Z,14.10
2017-08-05T22:43:15.676Z,14.30
2017-08-05T22:45:43.958Z,14.20
2017-08-05T22:48:12.244Z,14.30
2017-08-05T22:50:40.534Z,14.20
2017-08-05T22:53:08.800Z,14.20
2017-08-05T22:55:37.093Z,14.30
2017-08-05T22:58:05.378Z,14.30
2017-08-05T23:00:34.400Z,14.50
2017-08-05T23:03:02.822Z,14.50
2017-08-05T23:05:31.096Z,14.50
2017-08-05T23:07:59.409Z,14.50
2017-08-05T23:10:28.440Z,14.50
2017-08-05T23:12:56.699Z,14.50
2017-08-05T23:15:24.982Z,14.50
2017-08-05T23:17:53.254Z,14.50
2017-08-05T23:20:21.503Z,14.50
2017-08-05T23:22:50.557Z,14.60
2017-08-05T23:25:18.787Z,14.60
2017-08-05T23:27:47.827Z,14.60
2017-08-05T23:30:16.080Z,14.60
2017-08-05T23:32:44.371Z,14.50
2017-08-05T23:35:12.656Z,14.40
2017-08-05T23:37:40.928Z,14.50
2017-08-05T23:40:09.446Z,14.40
2017-08-05T23:42:37.725Z,14.30
2017-08-05T23:45:05.969Z,14.20
2017-08-05T23:47:34.267Z,14.10
2017-08-05T23:50:03.297Z,14.10
2017-08-05T23:52:32.342Z,14.10
2017-08-05T23:55:00.621Z,14.00
2017-08-05T23:57:28.891Z,14.10
2017-08-05T23:59:57.134Z,14.00
